Time,TemperatureF,DewpointF,PressureIn,WindDirection,WindDirectionDegrees,WindSpeedMPH,WindSpeedGustMPH,Humidity,HourlyPrecipIn,Conditions,Clouds,dailyrainin,SolarRadiationWatts/m^2,SoftwareType,DateUTC
2013-02-06 00:00:00,22.8,18.4,29.91,NNE,18,0.0,1.0,83,0.00,,SKC,0.00,0.00,VWS V14.01,2013-02-06 07:00:00,
2013-02-06 00:04:00,22.6,17.9,29.86,NNE,18,0.0,2.0,82,0.00,,SKC,0.00,0.00,VWS V14.01,2013-02-06 07:04:00,
2013-02-06 00:10:00,22.4,18.0,29.86,NNE,18,0.0,2.0,83,0.00,,SKC,0.00,0.00,VWS V14.01,2013-02-06 07:10:00,
2013-02-06 00:15:00,22.4,18.3,29.88,NNE,18,0.0,2.0,84,0.00,,SKC,0.00,0.00,VWS V14.01,2013-02-06 07:15:00,
2013-02-06 00:21:00,22.3,18.2,29.88,NNE,18,0.0,0.0,84,0.00,,SKC,0.00,0.00,VWS V14.01,2013-02-06 07:21:00,
2013-02-06 00:28:00,22.2,18.4,29.88,NNE,18,0.0,0.0,85,0.00,,SKC,0.00,0.00,VWS V14.01,2013-02-06 07:28:00,
2013-02-06 00:30:00,22.2,18.4,29.88,NNE,18,0.0,0.0,85,0.00,,SKC,0.00,0.00,VWS V14.01,2013-02-06 07:30:00,
2013-02-06 00:34:00,22.1,18.3,29.88,NNE,18,0.0,0.0,85,0.00,,SKC,0.00,0.00,VWS V14.01,2013-02-06 07:34:00,
2013-02-06 00:40:00,22.0,18.2,29.87,NNE,18,0.0,0.0,85,0.00,,SKC,0.00,0.00,VWS V14.01,2013-02-06 07:40:00,
2013-02-06 00:45:00,21.8,18.0,29.87,NNE,18,0.0,0.0,85,0.00,,SKC,0.00,0.00,VWS V14.01,2013-02-06 07:45:00,
2013-02-06 00:51:00,21.6,17.8,29.87,NNE,18,0.0,0.0,85,0.00,,SKC,0.00,0.00,VWS V14.01,2013-02-06 07:51:00,
2013-02-06 00:57:00,21.4,17.6,29.87,NNE,18,0.0,0.0,85,0.00,,SKC,0.00,0.00,VWS V14.01,2013-02-06 07:57:00,
2013-02-06 01:00:00,21.2,17.4,29.87,NNE,18,0.0,0.0,85,0.00,,SKC,0.00,0.00,VWS V14.01,2013-02-06 08:00:00,
2013-02-06 01:02:00,21.2,17.4,29.87,NNE,18,0.0,0.0,85,0.00,,SKC,0.00,0.00,VWS V14.01,2013-02-06 08:02:00,
2013-02-06 01:08:00,21.1,17.6,29.86,NNE,18,0.0,1.0,86,0.00,,SKC,0.00,0.00,VWS V14.01,2013-02-06 08:08:00,
2013-02-06 01:15:00,20.9,17.4,29.86,NNE,18,0.0,1.0,86,0.00,,SKC,0.00,0.00,VWS V14.01,2013-02-06 08:15:00,
2013-02-06 01:21:00,20.8,17.3,29.86,NNE,18,0.0,0.0,86,0.00,,SKC,0.00,0.00,VWS V14.01,2013-02-06 08:21:00,
2013-02-06 01:27:00,20.7,17.2,29.86,East,97,0.0,1.0,86,0.00,,SKC,0.00,0.00,VWS V14.01,2013-02-06 08:27:00,
2013-02-06 01:30:00,20.6,17.1,29.85,East,97,0.0,1.0,86,0.00,,SKC,0.00,0.00,VWS V14.01,2013-02-06 08:30:00,
2013-02-06 01:33:00,20.6,17.1,29.86,East,97,0.0,2.0,86,0.00,,SKC,0.00,0.00,VWS V14.01,2013-02-06 08:33:00,
2013-02-06 01:39:00,20.4,17.2,29.86,East,96,2.0,2.0,87,0.00,,SKC,0.00,0.00,VWS V14.01,2013-02-06 08:39:00,
2013-02-06 01:45:00,20.6,17.4,29.86,East,96,1.0,2.0,87,0.00,,SKC,0.00,0.00,VWS V14.01,2013-02-06 08:45:00,
2013-02-06 01:51:00,20.7,17.7,29.87,East,96,0.0,0.0,88,0.00,,SKC,0.00,0.00,VWS V14.01,2013-02-06 08:51:00,
2013-02-06 01:57:00,20.8,17.8,29.87,East,96,0.0,0.0,88,0.00,,SKC,0.00,0.00,VWS V14.01,2013-02-06 08:57:00,
2013-02-06 02:00:00,20.8,17.8,29.87,East,96,0.0,0.0,88,0.00,,SKC,0.00,0.00,VWS V14.01,2013-02-06 09:00:00,
2013-02-06 02:05:00,20.8,17.8,29.85,East,96,0.0,0.0,88,0.00,,SKC,0.00,0.00,VWS V14.01,2013-02-06 09:05:00,
2013-02-06 02:11:00,20.8,17.8,29.85,East,96,0.0,0.0,88,0.00,,SKC,0.00,0.00,VWS V14.01,2013-02-06 09:11:00,
2013-02-06 02:15:00,20.8,17.8,29.85,East,96,0.0,0.0,88,0.00,,SKC,0.00,0.00,VWS V14.01,2013-02-06 09:15:00,
2013-02-06 02:17:00,20.8,17.8,29.86,East,96,0.0,0.0,88,0.00,,SKC,0.00,0.00,VWS V14.01,2013-02-06 09:17:00,
2013-02-06 02:23:00,20.7,17.7,29.85,East,96,0.0,0.0,88,0.00,,SKC,0.00,0.00,VWS V14.01,2013-02-06 09:23:00,
2013-02-06 02:29:00,20.5,17.5,29.85,East,96,0.0,0.0,88,0.00,,SKC,0.00,0.00,VWS V14.01,2013-02-06 09:29:00,
2013-02-06 02:30:00,20.4,17.2,29.87,East,96,0.0,1.0,87,0.00,,SKC,0.00,0.00,VWS V14.01,2013-02-06 09:30:00,
2013-02-06 02:35:00,20.2,17.0,29.86,East,96,0.0,0.0,87,0.00,,SKC,0.00,0.00,VWS V14.01,2013-02-06 09:35:00,
2013-02-06 02:41:00,20.1,17.1,29.86,East,96,0.0,0.0,88,0.00,,SKC,0.00,0.00,VWS V14.01,2013-02-06 09:41:00,
2013-02-06 02:45:00,20.0,17.0,29.86,East,96,0.0,1.0,88,0.00,,SKC,0.00,0.00,VWS V14.01,2013-02-06 09:45:00,
2013-02-06 02:48:00,19.9,16.7,29.86,East,96,0.0,0.0,87,0.00,,SKC,0.00,0.00,VWS V14.01,2013-02-06 09:48:00,
2013-02-06 02:54:00,19.7,16.5,29.86,East,96,1.0,1.0,87,0.00,,SKC,0.00,0.00,VWS V14.01,2013-02-06 09:54:00,
2013-02-06 03:00:00,19.7,16.7,29.86,East,96,0.0,1.0,88,0.00,,SKC,0.00,0.00,VWS V14.01,2013-02-06 10:00:00,
2013-02-06 03:06:00,19.7,16.7,29.86,East,96,0.0,1.0,88,0.00,,SKC,0.00,0.00,VWS V14.01,2013-02-06 10:06:00,
2013-02-06 03:12:00,19.5,16.5,29.86,East,96,0.0,1.0,88,0.00,,SKC,0.00,0.00,VWS V14.01,2013-02-06 10:12:00,
2013-02-06 03:15:00,19.4,16.4,29.86,East,96,0.0,1.0,88,0.00,,SKC,0.00,0.00,VWS V14.01,2013-02-06 10:15:00,
2013-02-06 03:18:00,19.4,16.4,29.87,East,96,0.0,0.0,88,0.00,,SKC,0.00,0.00,VWS V14.01,2013-02-06 10:18:00,
2013-02-06 03:24:00,19.4,16.4,29.87,East,96,1.0,1.0,88,0.00,,SKC,0.00,0.00,VWS V14.01,2013-02-06 10:24:00,
2013-02-06 03:30:00,19.3,16.3,29.87,East,96,0.0,2.0,88,0.00,,SKC,0.00,0.00,VWS V14.01,2013-02-06 10:30:00,
2013-02-06 03:35:00,19.3,16.3,29.87,SSW,192,0.0,3.0,88,0.00,,SKC,0.00,0.00,VWS V14.01,2013-02-06 10:35:00,
2013-02-06 03:40:00,19.6,16.9,29.85,SSW,192,0.0,3.0,89,0.00,,SKC,0.00,0.00,VWS V14.01,2013-02-06 10:40:00,
2013-02-06 03:45:00,19.7,17.0,29.85,SSW,192,0.0,3.0,89,0.00,,SKC,0.00,0.00,VWS V14.01,2013-02-06 10:45:00,
2013-02-06 03:47:00,19.7,17.0,29.85,SSW,192,0.0,0.0,89,0.00,,SKC,0.00,0.00,VWS V14.01,2013-02-06 10:47:00,
2013-02-06 03:53:00,19.7,17.0,29.85,SSW,192,0.0,2.0,89,0.00,,SKC,0.00,0.00,VWS V14.01,2013-02-06 10:53:00,
2013-02-06 03:59:00,19.5,16.8,29.85,SSW,192,0.0,2.0,89,0.00,,SKC,0.00,0.00,VWS V14.01,2013-02-06 10:59:00,
2013-02-06 04:00:00,19.5,16.8,29.85,SSW,192,0.0,2.0,89,0.00,,SKC,0.00,0.00,VWS V14.01,2013-02-06 11:00:00,
2013-02-06 04:05:00,19.5,16.8,29.90,SSW,192,0.0,0.0,89,0.00,,SKC,0.00,0.00,VWS V14.01,2013-02-06 11:05:00,
2013-02-06 04:11:00,19.3,16.3,29.90,SSW,192,0.0,0.0,88,0.00,,SKC,0.00,0.00,VWS V14.01,2013-02-06 11:11:00,
2013-02-06 04:15:00,19.2,16.2,29.90,SSW,192,0.0,0.0,88,0.00,,SKC,0.00,0.00,VWS V14.01,2013-02-06 11:15:00,
2013-02-06 04:17:00,19.1,16.1,29.90,SSW,192,0.0,0.0,88,0.00,,SKC,0.00,0.00,VWS V14.01,2013-02-06 11:17:00,
2013-02-06 04:23:00,18.9,15.9,29.90,SSW,192,0.0,0.0,88,0.00,,SKC,0.00,0.00,VWS V14.01,2013-02-06 11:23:00,
2013-02-06 04:29:00,18.8,15.8,29.90,SSW,192,0.0,0.0,88,0.00,,SKC,0.00,0.00,VWS V14.01,2013-02-06 11:29:00,
2013-02-06 04:30:00,18.8,15.8,29.90,SSW,192,0.0,0.0,88,0.00,,SKC,0.00,0.00,VWS V14.01,2013-02-06 11:30:00,
2013-02-06 04:35:00,18.6,15.6,29.90,SSW,192,0.0,0.0,88,0.00,,SKC,0.00,0.00,VWS V14.01,2013-02-06 11:35:00,
2013-02-06 04:41:00,18.5,15.6,29.89,SSW,192,0.0,0.0,88,0.00,,SKC,0.00,0.00,VWS V14.01,2013-02-06 11:41:00,
2013-02-06 04:45:00,18.3,15.4,29.91,SSW,192,0.0,1.0,88,0.00,,SKC,0.00,0.00,VWS V14.01,2013-02-06 11:45:00,
2013-02-06 04:47:00,18.2,15.2,29.91,SSW,192,1.0,1.0,88,0.00,,SKC,0.00,0.00,VWS V14.01,2013-02-06 11:47:00,
2013-02-06 04:54:00,18.1,15.1,29.91,SSW,192,0.0,1.0,88,0.00,,SKC,0.00,0.00,VWS V14.01,2013-02-06 11:54:00,
2013-02-06 05:00:00,18.1,15.4,29.91,SSW,192,0.0,1.0,89,0.00,,SKC,0.00,0.00,VWS V14.01,2013-02-06 12:00:00,
2013-02-06 05:06:00,18.1,15.4,29.96,SSW,192,0.0,0.0,89,0.00,,SKC,0.00,0.00,VWS V14.01,2013-02-06 12:06:00,
2013-02-06 05:12:00,17.9,15.2,29.96,SSW,192,0.0,2.0,89,0.00,,SKC,0.00,0.00,VWS V14.01,2013-02-06 12:12:00,
2013-02-06 05:15:00,17.8,15.1,29.96,SSW,192,0.0,2.0,89,0.00,,SKC,0.00,0.00,VWS V14.01,2013-02-06 12:15:00,
2013-02-06 05:18:00,17.8,15.1,29.96,SSW,192,0.0,0.0,89,0.00,,SKC,0.00,0.00,VWS V14.01,2013-02-06 12:18:00,
2013-02-06 05:24:00,17.7,15.0,29.96,SSW,192,0.0,0.0,89,0.00,,SKC,0.00,0.00,VWS V14.01,2013-02-06 12:24:00,
2013-02-06 05:30:00,17.6,14.9,29.96,SSW,192,0.0,0.0,89,0.00,,SKC,0.00,0.00,VWS V14.01,2013-02-06 12:30:00,
2013-02-06 05:36:00,17.5,14.8,29.96,SSW,192,0.0,0.0,89,0.00,,SKC,0.00,0.00,VWS V14.01,2013-02-06 12:36:00,
2013-02-06 05:42:00,17.5,14.8,29.96,SSW,192,0.0,1.0,89,0.00,,SKC,0.00,0.00,VWS V14.01,2013-02-06 12:42:00,
2013-02-06 05:45:00,17.5,14.8,29.96,SSW,192,0.0,1.0,89,0.00,,SKC,0.00,0.00,VWS V14.01,2013-02-06 12:45:00,
2013-02-06 05:48:00,17.5,14.8,29.96,SSW,192,0.0,1.0,89,0.00,,SKC,0.00,0.00,VWS V14.01,2013-02-06 12:48:00,
2013-02-06 05:53:00,17.6,14.9,29.96,SSW,192,0.0,1.0,89,0.00,,SKC,0.00,0.00,VWS V14.01,2013-02-06 12:53:00,
2013-02-06 05:59:00,17.6,14.9,29.96,SSW,192,0.0,1.0,89,0.00,,SKC,0.00,0.00,VWS V14.01,2013-02-06 12:59:00,
2013-02-06 06:00:00,17.6,14.9,29.96,SSW,192,0.0,1.0,89,0.00,,SKC,0.00,0.00,VWS V14.01,2013-02-06 13:00:00,
2013-02-06 06:05:00,17.7,15.0,29.98,SSW,192,0.0,0.0,89,0.00,,SKC,0.00,0.00,VWS V14.01,2013-02-06 13:05:00,
2013-02-06 06:11:00,17.7,15.0,29.98,SSW,192,0.0,0.0,89,0.00,,SKC,0.00,0.00,VWS V14.01,2013-02-06 13:11:00,
2013-02-06 06:15:00,17.7,15.0,29.98,SSW,192,0.0,1.0,89,0.00,,SKC,0.00,0.00,VWS V14.01,2013-02-06 13:15:00,
2013-02-06 06:17:00,17.7,15.3,29.98,SSW,192,0.0,0.0,90,0.00,,SKC,0.00,0.00,VWS V14.01,2013-02-06 13:17:00,
2013-02-06 06:23:00,17.7,15.3,29.98,SSW,192,0.0,0.0,90,0.00,,SKC,0.00,0.00,VWS V14.01,2013-02-06 13:23:00,
2013-02-06 06:29:00,17.8,15.4,29.98,SSW,192,0.0,0.0,90,0.00,,SKC,0.00,0.00,VWS V14.01,2013-02-06 13:29:00,
2013-02-06 06:30:00,17.8,15.4,29.98,SSW,192,0.0,0.0,90,0.00,,SKC,0.00,0.00,VWS V14.01,2013-02-06 13:30:00,
2013-02-06 06:35:00,17.8,15.4,29.98,SSW,192,0.0,0.0,90,0.00,,SKC,0.00,0.00,VWS V14.01,2013-02-06 13:35:00,
2013-02-06 06:41:00,17.8,15.4,29.99,SSW,192,0.0,1.0,90,0.00,,SKC,0.00,0.00,VWS V14.01,2013-02-06 13:41:00,
2013-02-06 06:45:00,17.8,15.4,29.99,SSW,192,0.0,1.0,90,0.00,,SKC,0.00,0.00,VWS V14.01,2013-02-06 13:45:00,
2013-02-06 06:47:00,17.8,15.4,29.99,SSW,192,0.0,0.0,90,0.00,,SKC,0.00,0.00,VWS V14.01,2013-02-06 13:47:00,
2013-02-06 06:54:00,17.8,15.4,29.99,SSW,192,0.0,1.0,90,0.00,,SKC,0.00,0.00,VWS V14.01,2013-02-06 13:54:00,
2013-02-06 07:00:00,17.7,15.3,29.99,SSW,192,1.0,1.0,90,0.00,,SKC,0.00,0.00,VWS V14.01,2013-02-06 14:00:00,
2013-02-06 07:06:00,17.6,15.2,30.01,SSW,192,0.0,0.0,90,0.00,,SKC,0.00,5.00,VWS V14.01,2013-02-06 14:06:00,
2013-02-06 07:11:00,17.6,15.2,30.01,SSW,192,0.0,0.0,90,0.00,,SKC,0.00,9.00,VWS V14.01,2013-02-06 14:11:00,
2013-02-06 07:15:00,17.6,15.2,30.01,SSW,192,0.0,1.0,90,0.00,,SKC,0.00,12.00,VWS V14.01,2013-02-06 14:15:00,
2013-02-06 07:17:00,17.6,15.2,30.01,SSW,192,0.0,0.0,90,0.00,,SKC,0.00,14.00,VWS V14.01,2013-02-06 14:17:00,
2013-02-06 07:23:00,17.6,15.2,30.01,SSW,192,0.0,2.0,90,0.00,,SKC,0.00,21.00,VWS V14.01,2013-02-06 14:23:00,
2013-02-06 07:29:00,17.7,15.3,30.01,SSW,192,0.0,2.0,90,0.00,,SKC,0.00,37.00,VWS V14.01,2013-02-06 14:29:00,
2013-02-06 07:30:00,17.7,15.3,30.00,SSW,192,0.0,2.0,90,0.00,,SKC,0.00,37.00,VWS V14.01,2013-02-06 14:30:00,
2013-02-06 07:35:00,17.8,15.4,30.00,SSW,192,0.0,0.0,90,0.00,,SKC,0.00,40.00,VWS V14.01,2013-02-06 14:35:00,
2013-02-06 07:41:00,18.0,15.6,30.00,SSW,192,0.0,0.0,90,0.00,,SKC,0.00,44.00,VWS V14.01,2013-02-06 14:41:00,
2013-02-06 07:45:00,18.2,16.0,29.99,SSW,192,0.0,0.0,91,0.00,,SKC,0.00,51.00,VWS V14.01,2013-02-06 14:45:00,
2013-02-06 07:47:00,18.3,16.1,29.99,SSW,192,0.0,0.0,91,0.00,,SKC,0.00,51.00,VWS V14.01,2013-02-06 14:47:00,
2013-02-06 07:53:00,18.5,16.3,29.99,SSW,192,0.0,0.0,91,0.00,,SKC,0.00,60.00,VWS V14.01,2013-02-06 14:53:00,
2013-02-06 07:59:00,18.9,16.7,29.99,SSW,192,0.0,1.0,91,0.00,,SKC,0.00,62.00,VWS V14.01,2013-02-06 14:59:00,
2013-02-06 08:00:00,19.1,16.9,29.99,SSW,192,0.0,1.0,91,0.00,,SKC,0.00,60.00,VWS V14.01,2013-02-06 15:00:00,
2013-02-06 08:05:00,19.5,17.3,29.99,SSW,192,0.0,0.0,91,0.00,,SKC,0.00,51.00,VWS V14.01,2013-02-06 15:05:00,
2013-02-06 08:11:00,19.7,17.5,29.99,SSW,192,0.0,0.0,91,0.00,,SKC,0.00,49.00,VWS V14.01,2013-02-06 15:11:00,
2013-02-06 08:15:00,19.9,17.7,29.99,SSW,192,1.0,2.0,91,0.00,,SKC,0.00,47.00,VWS V14.01,2013-02-06 15:15:00,
2013-02-06 08:17:00,20.0,18.0,29.99,SSW,192,2.0,2.0,92,0.00,,SKC,0.00,46.00,VWS V14.01,2013-02-06 15:17:00,
2013-02-06 08:23:00,20.4,18.2,29.99,NE,44,0.0,2.0,91,0.00,,SKC,0.00,30.00,VWS V14.01,2013-02-06 15:23:00,
2013-02-06 08:29:00,20.5,18.3,29.98,NE,44,0.0,2.0,91,0.00,,SKC,0.00,25.00,VWS V14.01,2013-02-06 15:29:00,
2013-02-06 08:30:00,20.5,18.3,29.98,NE,44,0.0,2.0,91,0.00,,SKC,0.00,26.00,VWS V14.01,2013-02-06 15:30:00,
2013-02-06 08:35:00,20.6,18.4,29.99,NE,52,0.0,1.0,91,0.00,,SKC,0.00,28.00,VWS V14.01,2013-02-06 15:35:00,
2013-02-06 08:41:00,20.6,18.4,29.99,NE,52,0.0,2.0,91,0.00,,SKC,0.00,44.00,VWS V14.01,2013-02-06 15:41:00,
2013-02-06 08:45:00,20.6,18.4,29.99,NE,52,0.0,2.0,91,0.00,,SKC,0.00,69.00,VWS V14.01,2013-02-06 15:45:00,
2013-02-06 08:47:00,20.6,18.4,29.99,NE,52,1.0,3.0,91,0.00,,SKC,0.00,76.00,VWS V14.01,2013-02-06 15:47:00,
2013-02-06 08:53:00,20.6,18.4,29.99,WNW,296,0.0,3.0,91,0.00,,SKC,0.00,79.00,VWS V14.01,2013-02-06 15:53:00,
2013-02-06 08:59:00,20.8,18.6,29.99,WNW,296,0.0,3.0,91,0.00,,SKC,0.00,86.00,VWS V14.01,2013-02-06 15:59:00,
2013-02-06 09:00:00,20.8,18.6,29.99,WNW,297,0.0,3.0,91,0.00,,SKC,0.00,74.00,VWS V14.01,2013-02-06 16:00:00,
2013-02-06 09:05:00,20.9,18.7,29.99,WNW,296,0.0,0.0,91,0.00,,SKC,0.00,65.00,VWS V14.01,2013-02-06 16:05:00,
2013-02-06 09:11:00,21.1,18.9,29.99,WNW,296,0.0,0.0,91,0.00,,SKC,0.00,86.00,VWS V14.01,2013-02-06 16:11:00,
2013-02-06 09:15:00,21.3,19.1,29.99,WNW,297,0.0,0.0,91,0.00,,SKC,0.00,90.00,VWS V14.01,2013-02-06 16:15:00,
2013-02-06 09:17:00,21.4,19.2,29.99,WNW,296,0.0,1.0,91,0.00,,SKC,0.00,84.00,VWS V14.01,2013-02-06 16:17:00,
2013-02-06 09:24:00,22.4,20.2,29.97,WNW,296,0.0,1.0,91,0.00,,SKC,0.00,137.00,VWS V14.01,2013-02-06 16:24:00,
2013-02-06 09:30:00,23.3,21.1,29.97,WNW,297,0.0,1.0,91,0.00,,SKC,0.00,185.00,VWS V14.01,2013-02-06 16:30:00,
2013-02-06 09:36:00,24.2,21.4,29.95,WNW,296,0.0,0.0,89,0.00,,SKC,0.00,171.00,VWS V14.01,2013-02-06 16:36:00,
2013-02-06 09:42:00,24.9,21.9,29.95,WNW,297,0.0,0.0,88,0.00,,SKC,0.00,128.00,VWS V14.01,2013-02-06 16:42:00,
2013-02-06 09:45:00,25.2,22.1,29.95,WNW,297,0.0,0.0,88,0.00,,SKC,0.00,183.00,VWS V14.01,2013-02-06 16:45:00,
2013-02-06 09:48:00,25.3,22.0,29.94,WNW,296,0.0,0.0,87,0.00,,SKC,0.00,236.00,VWS V14.01,2013-02-06 16:48:00,
2013-02-06 09:54:00,26.0,22.1,29.93,WNW,296,0.0,2.0,85,0.00,,SKC,0.00,146.00,VWS V14.01,2013-02-06 16:54:00,
2013-02-06 10:00:00,26.6,22.4,29.93,WNW,296,0.0,2.0,84,0.00,,SKC,0.00,176.00,VWS V14.01,2013-02-06 17:00:00,
2013-02-06 10:06:00,27.2,22.4,29.94,WNW,296,0.0,1.0,82,0.00,,SKC,0.00,144.00,VWS V14.01,2013-02-06 17:06:00,
2013-02-06 10:12:00,27.6,22.0,29.94,WNW,298,1.0,1.0,79,0.00,,SKC,0.00,125.00,VWS V14.01,2013-02-06 17:12:00,
2013-02-06 10:15:00,27.7,22.0,29.94,WNW,298,0.0,1.0,79,0.00,,SKC,0.00,113.00,VWS V14.01,2013-02-06 17:15:00,
2013-02-06 10:18:00,27.8,21.9,29.94,WNW,299,0.0,2.0,78,0.00,,SKC,0.00,116.00,VWS V14.01,2013-02-06 17:18:00,
2013-02-06 10:24:00,27.9,21.9,29.94,WNW,299,0.0,2.0,78,0.00,,SKC,0.00,125.00,VWS V14.01,2013-02-06 17:24:00,
2013-02-06 10:30:00,28.4,22.4,29.94,WNW,299,0.0,2.0,78,0.00,,SKC,0.00,149.00,VWS V14.01,2013-02-06 17:30:00,
2013-02-06 10:36:00,28.9,22.3,29.92,North,5,4.0,4.0,76,0.00,,SKC,0.00,165.00,VWS V14.01,2013-02-06 17:36:00,
2013-02-06 10:42:00,29.7,22.8,29.92,North,360,0.0,4.0,75,0.00,,SKC,0.00,185.00,VWS V14.01,2013-02-06 17:42:00,
2013-02-06 10:45:00,30.1,22.8,29.92,NNE,22,2.0,5.0,74,0.00,,SKC,0.00,216.00,VWS V14.01,2013-02-06 17:45:00,
2013-02-06 10:49:00,30.4,22.8,29.92,NNE,17,0.0,6.0,73,0.00,,SKC,0.00,227.00,VWS V14.01,2013-02-06 17:49:00,
2013-02-06 10:55:00,31.0,22.7,29.90,NNE,23,0.0,10.0,71,0.00,,SKC,0.00,255.00,VWS V14.01,2013-02-06 17:55:00,
2013-02-06 11:00:00,31.9,23.2,29.90,NE,34,1.0,10.0,70,0.00,,SKC,0.00,253.00,VWS V14.01,2013-02-06 18:00:00,
2013-02-06 11:07:00,32.6,23.2,29.90,NE,42,2.0,4.0,68,0.00,,SKC,0.00,288.00,VWS V14.01,2013-02-06 18:07:00,
2013-02-06 11:13:00,33.4,23.3,29.90,NE,42,0.0,4.0,66,0.00,,SKC,0.00,306.00,VWS V14.01,2013-02-06 18:13:00,
2013-02-06 11:15:00,33.9,24.1,29.90,NNE,24,0.0,4.0,67,0.00,,SKC,0.00,301.00,VWS V14.01,2013-02-06 18:15:00,
2013-02-06 11:19:00,34.4,24.2,29.90,North,350,2.0,6.0,66,0.00,,SKC,0.00,271.00,VWS V14.01,2013-02-06 18:19:00,
2013-02-06 11:25:00,35.3,24.4,29.88,NNE,29,0.0,6.0,64,0.00,,SKC,0.00,339.00,VWS V14.01,2013-02-06 18:25:00,
2013-02-06 11:30:00,36.0,24.3,29.88,North,355,0.0,6.0,62,0.00,,SKC,0.00,306.00,VWS V14.01,2013-02-06 18:30:00,
2013-02-06 11:31:00,36.0,24.3,29.88,North,355,0.0,6.0,62,0.00,,SKC,0.00,306.00,VWS V14.01,2013-02-06 18:31:00,
2013-02-06 11:37:00,36.6,24.0,29.86,NE,53,0.0,6.0,60,0.00,,SKC,0.00,258.00,VWS V14.01,2013-02-06 18:37:00,
2013-02-06 11:43:00,36.9,23.9,29.86,NE,47,0.0,6.0,59,0.00,,SKC,0.00,223.00,VWS V14.01,2013-02-06 18:43:00,
2013-02-06 11:45:00,37.1,24.1,29.86,ENE,58,3.0,6.0,59,0.00,,SKC,0.00,195.00,VWS V14.01,2013-02-06 18:45:00,
2013-02-06 11:49:00,37.0,24.0,29.86,NE,53,2.0,3.0,59,0.00,,SKC,0.00,181.00,VWS V14.01,2013-02-06 18:49:00,
2013-02-06 11:55:00,37.0,24.4,29.86,East,86,1.0,5.0,60,0.00,,SKC,0.00,158.00,VWS V14.01,2013-02-06 18:55:00,
2013-02-06 12:00:00,37.2,23.8,29.86,East,86,0.0,5.0,58,0.00,,SKC,0.00,148.00,VWS V14.01,2013-02-06 19:00:00,
2013-02-06 12:06:00,37.4,24.0,29.87,East,86,0.0,0.0,58,0.00,,SKC,0.00,134.00,VWS V14.01,2013-02-06 19:06:00,
2013-02-06 12:12:00,37.4,24.0,29.87,East,86,0.0,1.0,58,0.00,,SKC,0.00,135.00,VWS V14.01,2013-02-06 19:12:00,
2013-02-06 12:15:00,37.5,24.1,29.87,East,86,0.0,1.0,58,0.00,,SKC,0.00,123.00,VWS V14.01,2013-02-06 19:15:00,
2013-02-06 12:18:00,37.5,24.1,29.87,East,86,0.0,2.0,58,0.00,,SKC,0.00,121.00,VWS V14.01,2013-02-06 19:18:00,
2013-02-06 12:24:00,37.5,24.1,29.87,East,86,0.0,3.0,58,0.00,,SKC,0.00,104.00,VWS V14.01,2013-02-06 19:24:00,
2013-02-06 12:30:00,37.5,24.1,29.87,East,86,1.0,3.0,58,0.00,,SKC,0.00,105.00,VWS V14.01,2013-02-06 19:30:00,
2013-02-06 12:36:00,37.2,24.2,29.88,NE,38,4.0,8.0,59,0.00,,SKC,0.00,100.00,VWS V14.01,2013-02-06 19:36:00,
2013-02-06 12:42:00,36.2,23.3,29.90,NNE,27,2.0,14.0,59,0.00,,SKC,0.00,90.00,VWS V14.01,2013-02-06 19:42:00,
2013-02-06 12:45:00,35.9,23.4,29.90,North,355,0.0,14.0,60,0.00,,SKC,0.00,88.00,VWS V14.01,2013-02-06 19:45:00,
2013-02-06 12:48:00,35.8,23.3,29.90,NNE,28,5.0,8.0,60,0.00,,SKC,0.00,91.00,VWS V14.01,2013-02-06 19:48:00,
2013-02-06 12:54:00,35.6,23.5,29.90,North,9,3.0,8.0,61,0.00,,SKC,0.00,123.00,VWS V14.01,2013-02-06 19:54:00,
2013-02-06 13:00:00,35.7,23.6,29.90,North,10,0.0,8.0,61,0.00,,SKC,0.00,123.00,VWS V14.01,2013-02-06 20:00:00,
2013-02-06 13:06:00,36.0,23.9,29.89,North,9,0.0,4.0,61,0.00,,SKC,0.00,111.00,VWS V14.01,2013-02-06 20:06:00,
2013-02-06 13:12:00,36.5,24.3,29.88,North,5,0.0,4.0,61,0.00,,SKC,0.00,118.00,VWS V14.01,2013-02-06 20:12:00,
2013-02-06 13:15:00,36.8,24.2,29.88,North,5,2.0,4.0,60,0.00,,SKC,0.00,137.00,VWS V14.01,2013-02-06 20:15:00,
2013-02-06 13:18:00,37.0,24.0,29.88,North,5,0.0,3.0,59,0.00,,SKC,0.00,144.00,VWS V14.01,2013-02-06 20:18:00,
2013-02-06 13:24:00,37.3,24.3,29.88,North,5,1.0,3.0,59,0.00,,SKC,0.00,142.00,VWS V14.01,2013-02-06 20:24:00,
2013-02-06 13:30:00,37.9,26.5,29.88,North,5,0.0,3.0,63,0.00,,SKC,0.00,192.00,VWS V14.01,2013-02-06 20:30:00,
2013-02-06 13:36:00,38.3,24.8,29.87,SSE,163,3.0,6.0,58,0.00,,SKC,0.00,227.00,VWS V14.01,2013-02-06 20:36:00,
2013-02-06 13:42:00,38.3,26.8,29.87,SSE,167,5.0,9.0,63,0.00,,SKC,0.00,262.00,VWS V14.01,2013-02-06 20:42:00,
2013-02-06 13:45:00,38.3,26.8,29.86,SW,229,4.0,10.0,63,0.00,,SKC,0.00,250.00,VWS V14.01,2013-02-06 20:45:00,
2013-02-06 13:48:00,38.3,27.6,29.86,SSW,213,9.0,12.0,65,0.00,,SKC,0.00,246.00,VWS V14.01,2013-02-06 20:48:00,
2013-02-06 13:54:00,38.2,28.2,29.86,WSW,238,5.0,15.0,67,0.00,,SKC,0.00,246.00,VWS V14.01,2013-02-06 20:54:00,
2013-02-06 14:00:00,38.3,29.0,29.85,South,179,6.0,15.0,69,0.00,,SKC,0.00,237.00,VWS V14.01,2013-02-06 21:00:00,
2013-02-06 14:06:00,38.4,29.5,29.85,SSW,194,12.0,13.0,70,0.00,,SKC,0.00,225.00,VWS V14.01,2013-02-06 21:06:00,
2013-02-06 14:12:00,38.5,29.9,29.85,SSW,207,11.0,13.0,71,0.00,,SKC,0.00,163.00,VWS V14.01,2013-02-06 21:12:00,
2013-02-06 14:15:00,38.6,30.0,29.85,SW,229,9.0,13.0,71,0.00,,SKC,0.00,155.00,VWS V14.01,2013-02-06 21:15:00,
2013-02-06 14:18:00,38.6,30.0,29.85,SW,223,10.0,13.0,71,0.00,,SKC,0.00,156.00,VWS V14.01,2013-02-06 21:18:00,
2013-02-06 14:24:00,38.6,30.4,29.85,SSW,206,10.0,13.0,72,0.00,,SKC,0.00,176.00,VWS V14.01,2013-02-06 21:24:00,
2013-02-06 14:30:00,38.6,30.4,29.85,SW,229,6.0,13.0,72,0.00,,SKC,0.00,151.00,VWS V14.01,2013-02-06 21:30:00,
2013-02-06 14:36:00,38.6,30.7,29.86,SW,216,6.0,11.0,73,0.00,,SKC,0.00,98.00,VWS V14.01,2013-02-06 21:36:00,
2013-02-06 14:43:00,38.6,30.7,29.86,SW,214,3.0,11.0,73,0.00,,SKC,0.00,67.00,VWS V14.01,2013-02-06 21:43:00,
2013-02-06 14:45:00,38.6,30.7,29.86,WSW,238,1.0,11.0,73,0.00,,SKC,0.00,67.00,VWS V14.01,2013-02-06 21:45:00,
2013-02-06 14:49:00,38.5,30.6,29.86,SSW,198,10.0,11.0,73,0.00,,SKC,0.00,77.00,VWS V14.01,2013-02-06 21:49:00,
2013-02-06 14:55:00,38.3,31.1,29.86,SSW,200,9.0,11.0,75,0.00,,SKC,0.00,74.00,VWS V14.01,2013-02-06 21:55:00,
2013-02-06 15:00:00,38.0,31.1,29.86,SW,230,4.0,11.0,76,0.00,,SKC,0.00,83.00,VWS V14.01,2013-02-06 22:00:00,
2013-02-06 15:07:00,37.9,31.4,29.87,West,260,9.0,9.0,77,0.00,,SKC,0.00,91.00,VWS V14.01,2013-02-06 22:07:00,
2013-02-06 15:13:00,37.7,31.8,29.87,WSW,240,2.0,10.0,79,0.00,,SKC,0.00,91.00,VWS V14.01,2013-02-06 22:13:00,
2013-02-06 15:15:00,37.6,31.7,29.87,WSW,242,3.0,10.0,79,0.00,,SKC,0.00,91.00,VWS V14.01,2013-02-06 22:15:00,
2013-02-06 15:19:00,37.5,31.9,29.87,WSW,245,2.0,5.0,80,0.00,,SKC,0.00,77.00,VWS V14.01,2013-02-06 22:19:00,
2013-02-06 15:25:00,37.3,32.0,29.88,SW,225,0.0,5.0,81,0.00,,SKC,0.00,65.00,VWS V14.01,2013-02-06 22:25:00,
2013-02-06 15:30:00,37.2,31.9,29.89,SSE,168,4.0,5.0,81,0.00,,SKC,0.00,46.00,VWS V14.01,2013-02-06 22:30:00,
2013-02-06 15:31:00,37.2,31.9,29.89,SSE,168,4.0,5.0,81,0.00,,SKC,0.00,46.00,VWS V14.01,2013-02-06 22:31:00,
2013-02-06 15:36:00,37.1,32.1,29.89,South,177,3.0,4.0,82,0.01,,SKC,0.01,33.00,VWS V14.01,2013-02-06 22:36:00,
2013-02-06 15:42:00,36.9,32.2,29.89,WSW,246,3.0,5.0,83,0.01,,SKC,0.01,33.00,VWS V14.01,2013-02-06 22:42:00,
2013-02-06 15:45:00,36.8,32.1,29.88,WSW,246,1.0,5.0,83,0.01,,SKC,0.01,30.00,VWS V14.01,2013-02-06 22:45:00,
2013-02-06 15:48:00,36.7,32.0,29.88,SW,236,1.0,5.0,83,0.01,,SKC,0.01,26.00,VWS V14.01,2013-02-06 22:48:00,
2013-02-06 15:54:00,36.5,32.1,29.88,SW,235,2.0,5.0,84,0.01,,SKC,0.01,21.00,VWS V14.01,2013-02-06 22:54:00,
2013-02-06 16:00:00,36.4,32.3,29.88,ESE,122,2.0,5.0,85,0.01,,SKC,0.01,18.00,VWS V14.01,2013-02-06 23:00:00,
2013-02-06 16:06:00,36.0,32.2,29.90,ESE,123,0.0,3.0,86,0.01,,SKC,0.01,16.00,VWS V14.01,2013-02-06 23:06:00,
2013-02-06 16:12:00,35.9,32.1,29.91,ESE,123,2.0,4.0,86,0.01,,SKC,0.01,16.00,VWS V14.01,2013-02-06 23:12:00,
2013-02-06 16:15:00,35.7,31.9,29.90,ESE,122,2.0,4.0,86,0.01,,SKC,0.01,14.00,VWS V14.01,2013-02-06 23:15:00,
2013-02-06 16:18:00,35.6,31.8,29.90,ESE,122,3.0,4.0,86,0.01,,SKC,0.01,16.00,VWS V14.01,2013-02-06 23:18:00,
2013-02-06 16:24:00,35.4,31.9,29.91,ESE,122,3.0,4.0,87,0.01,,SKC,0.01,18.00,VWS V14.01,2013-02-06 23:24:00,
2013-02-06 16:30:00,35.3,32.1,29.92,ESE,123,4.0,4.0,88,0.01,,SKC,0.01,14.00,VWS V14.01,2013-02-06 23:30:00,
2013-02-06 16:36:00,35.2,32.0,29.92,SSW,209,3.0,5.0,88,0.02,,SKC,0.02,16.00,VWS V14.01,2013-02-06 23:36:00,
2013-02-06 16:43:00,35.0,31.8,29.92,South,191,1.0,5.0,88,0.02,,SKC,0.02,21.00,VWS V14.01,2013-02-06 23:43:00,
2013-02-06 16:45:00,35.0,31.8,29.92,South,191,0.0,5.0,88,0.02,,SKC,0.02,23.00,VWS V14.01,2013-02-06 23:45:00,
2013-02-06 16:48:00,35.0,31.8,29.92,South,191,0.0,0.0,88,0.01,,SKC,0.02,23.00,VWS V14.01,2013-02-06 23:48:00,
2013-02-06 16:54:00,35.0,32.1,29.92,South,191,0.0,2.0,89,0.02,,SKC,0.03,19.00,VWS V14.01,2013-02-06 23:54:00,
2013-02-06 17:00:00,34.9,32.0,29.92,SSE,161,2.0,5.0,89,0.02,,SKC,0.03,18.00,VWS V14.01,2013-02-07 00:00:00,
2013-02-06 17:06:00,34.8,31.9,29.92,SSE,162,0.0,4.0,89,0.02,,SKC,0.03,11.00,VWS V14.01,2013-02-07 00:06:00,
2013-02-06 17:12:00,34.8,32.2,29.93,SSE,163,2.0,4.0,90,0.02,,SKC,0.03,5.00,VWS V14.01,2013-02-07 00:12:00,
2013-02-06 17:15:00,34.7,32.1,29.93,SSE,163,1.0,4.0,90,0.02,,SKC,0.03,5.00,VWS V14.01,2013-02-07 00:15:00,
2013-02-06 17:18:00,34.7,32.1,29.93,SSE,161,4.0,4.0,90,0.02,,SKC,0.03,0.00,VWS V14.01,2013-02-07 00:18:00,
2013-02-06 17:24:00,34.6,32.0,29.93,SSE,163,5.0,6.0,90,0.02,,SKC,0.03,0.00,VWS V14.01,2013-02-07 00:24:00,
2013-02-06 17:30:00,34.4,32.0,29.94,SSE,148,3.0,7.0,91,0.02,,SKC,0.03,0.00,VWS V14.01,2013-02-07 00:30:00,
2013-02-06 17:36:00,34.4,32.0,29.94,SSE,148,1.0,5.0,91,0.02,,SKC,0.03,0.00,VWS V14.01,2013-02-07 00:36:00,
2013-02-06 17:42:00,34.4,32.0,29.94,SSE,148,3.0,5.0,91,0.02,,SKC,0.03,0.00,VWS V14.01,2013-02-07 00:42:00,
2013-02-06 17:45:00,34.4,32.0,29.94,SSE,148,3.0,5.0,91,0.02,,SKC,0.03,0.00,VWS V14.01,2013-02-07 00:45:00,
2013-02-06 17:48:00,34.4,32.0,29.94,SSE,148,2.0,3.0,91,0.01,,SKC,0.03,0.00,VWS V14.01,2013-02-07 00:48:00,
2013-02-06 17:54:00,34.4,32.0,29.94,SSE,148,3.0,3.0,91,0.01,,SKC,0.03,0.00,VWS V14.01,2013-02-07 00:54:00,
2013-02-06 18:00:00,34.4,32.0,29.95,SSE,156,0.0,6.0,91,0.01,,SKC,0.03,0.00,VWS V14.01,2013-02-07 01:00:00,
2013-02-06 18:06:00,34.4,32.0,29.95,SSE,156,3.0,5.0,91,0.00,,SKC,0.03,0.00,VWS V14.01,2013-02-07 01:06:00,
2013-02-06 18:12:00,34.4,32.0,29.95,SSE,157,0.0,5.0,91,0.00,,SKC,0.03,0.00,VWS V14.01,2013-02-07 01:12:00,
2013-02-06 18:15:00,34.4,32.3,29.95,SSE,156,0.0,5.0,92,0.00,,SKC,0.03,0.00,VWS V14.01,2013-02-07 01:15:00,
2013-02-06 18:18:00,34.4,32.3,29.96,NE,49,4.0,4.0,92,0.00,,SKC,0.03,0.00,VWS V14.01,2013-02-07 01:18:00,
2013-02-06 18:25:00,34.4,32.3,29.97,NE,49,0.0,4.0,92,0.00,,SKC,0.03,0.00,VWS V14.01,2013-02-07 01:25:00,
2013-02-06 18:30:00,34.4,32.3,29.97,NE,49,0.0,4.0,92,0.00,,SKC,0.03,0.00,VWS V14.01,2013-02-07 01:30:00,
2013-02-06 18:37:00,34.4,32.3,29.97,NE,49,0.0,0.0,92,0.00,,SKC,0.03,0.00,VWS V14.01,2013-02-07 01:37:00,
2013-02-06 18:43:00,34.4,32.3,29.97,NE,49,0.0,2.0,92,0.00,,SKC,0.03,0.00,VWS V14.01,2013-02-07 01:43:00,
2013-02-06 18:45:00,34.3,32.2,29.97,NE,50,0.0,2.0,92,0.00,,SKC,0.03,0.00,VWS V14.01,2013-02-07 01:45:00,
2013-02-06 18:49:00,34.3,32.0,29.98,NE,49,0.0,0.0,91,0.00,,SKC,0.03,0.00,VWS V14.01,2013-02-07 01:49:00,
2013-02-06 18:55:00,34.2,32.1,29.98,NE,50,0.0,0.0,92,0.00,,SKC,0.03,0.00,VWS V14.01,2013-02-07 01:55:00,
2013-02-06 19:00:00,34.1,32.0,29.98,NE,49,0.0,0.0,92,0.00,,SKC,0.03,0.00,VWS V14.01,2013-02-07 02:00:00,
2013-02-06 19:07:00,34.1,32.0,29.98,NE,49,0.0,0.0,92,0.00,,SKC,0.03,0.00,VWS V14.01,2013-02-07 02:07:00,
2013-02-06 19:13:00,34.1,32.0,29.98,NE,49,0.0,0.0,92,0.00,,SKC,0.03,0.00,VWS V14.01,2013-02-07 02:13:00,
2013-02-06 19:15:00,34.0,31.9,29.98,NE,49,0.0,0.0,92,0.00,,SKC,0.03,0.00,VWS V14.01,2013-02-07 02:15:00,
2013-02-06 19:19:00,33.9,31.8,29.98,NE,49,0.0,0.0,92,0.00,,SKC,0.03,0.00,VWS V14.01,2013-02-07 02:19:00,
2013-02-06 19:25:00,33.8,31.7,29.98,NE,49,0.0,0.0,92,0.00,,SKC,0.03,0.00,VWS V14.01,2013-02-07 02:25:00,
2013-02-06 19:30:00,33.8,31.7,29.99,NE,49,0.0,0.0,92,0.00,,SKC,0.03,0.00,VWS V14.01,2013-02-07 02:30:00,
2013-02-06 19:35:00,33.7,31.6,29.99,NE,49,0.0,0.0,92,0.00,,SKC,0.03,0.00,VWS V14.01,2013-02-07 02:35:00,
2013-02-06 19:42:00,33.6,31.3,30.00,NE,49,0.0,0.0,91,0.00,,SKC,0.03,0.00,VWS V14.01,2013-02-07 02:42:00,
2013-02-06 19:45:00,33.6,31.3,30.00,NE,49,0.0,0.0,91,0.00,,SKC,0.03,0.00,VWS V14.01,2013-02-07 02:45:00,
2013-02-06 19:48:00,33.6,31.5,30.00,NE,49,0.0,1.0,92,0.00,,SKC,0.03,0.00,VWS V14.01,2013-02-07 02:48:00,
2013-02-06 19:54:00,33.5,31.4,30.00,NE,49,0.0,1.0,92,0.00,,SKC,0.03,0.00,VWS V14.01,2013-02-07 02:54:00,
2013-02-06 20:00:00,33.4,31.3,30.00,NE,49,0.0,1.0,92,0.00,,SKC,0.03,0.00,VWS V14.01,2013-02-07 03:00:00,
2013-02-06 20:06:00,33.4,31.3,29.99,NE,50,0.0,1.0,92,0.00,,SKC,0.03,0.00,VWS V14.01,2013-02-07 03:06:00,
2013-02-06 20:12:00,33.4,31.3,29.99,NE,49,0.0,2.0,92,0.00,,SKC,0.03,0.00,VWS V14.01,2013-02-07 03:12:00,
2013-02-06 20:15:00,33.4,31.3,29.99,NE,49,0.0,2.0,92,0.00,,SKC,0.03,0.00,VWS V14.01,2013-02-07 03:15:00,
2013-02-06 20:18:00,33.3,31.2,29.99,NE,49,0.0,0.0,92,0.00,,SKC,0.03,0.00,VWS V14.01,2013-02-07 03:18:00,
2013-02-06 20:24:00,33.3,31.2,29.99,NE,49,0.0,0.0,92,0.00,,SKC,0.03,0.00,VWS V14.01,2013-02-07 03:24:00,
2013-02-06 20:30:00,33.2,31.1,29.99,NE,49,0.0,0.0,92,0.00,,SKC,0.03,0.00,VWS V14.01,2013-02-07 03:30:00,
2013-02-06 20:36:00,33.2,31.1,30.00,NE,49,0.0,0.0,92,0.00,,SKC,0.03,0.00,VWS V14.01,2013-02-07 03:36:00,
2013-02-06 20:42:00,33.1,31.0,30.01,NE,49,0.0,0.0,92,0.00,,SKC,0.03,0.00,VWS V14.01,2013-02-07 03:42:00,
2013-02-06 20:45:00,33.0,30.9,30.01,NE,49,0.0,0.0,92,0.00,,SKC,0.03,0.00,VWS V14.01,2013-02-07 03:45:00,
2013-02-06 20:48:00,33.0,30.9,30.01,NE,49,0.0,0.0,92,0.00,,SKC,0.03,0.00,VWS V14.01,2013-02-07 03:48:00,
2013-02-06 20:54:00,32.9,30.8,30.01,NE,49,0.0,0.0,92,0.00,,SKC,0.03,0.00,VWS V14.01,2013-02-07 03:54:00,
2013-02-06 21:00:00,32.9,30.8,30.01,NNW,344,2.0,4.0,92,0.00,,SKC,0.03,0.00,VWS V14.01,2013-02-07 04:00:00,
2013-02-06 21:07:00,32.9,30.8,29.97,North,349,4.0,7.0,92,0.00,,SKC,0.03,0.00,VWS V14.01,2013-02-07 04:07:00,
2013-02-06 21:12:00,32.9,30.8,29.98,NNW,342,0.0,7.0,92,0.00,,SKC,0.03,0.00,VWS V14.01,2013-02-07 04:12:00,
2013-02-06 21:15:00,32.9,30.8,29.98,NNW,342,0.0,7.0,92,0.00,,SKC,0.03,0.00,VWS V14.01,2013-02-07 04:15:00,
2013-02-06 21:18:00,32.9,30.8,29.98,NNW,342,0.0,2.0,92,0.00,,SKC,0.03,0.00,VWS V14.01,2013-02-07 04:18:00,
2013-02-06 21:24:00,32.8,30.7,29.98,NNW,342,0.0,4.0,92,0.00,,SKC,0.03,0.00,VWS V14.01,2013-02-07 04:24:00,
2013-02-06 21:30:00,32.8,30.7,29.98,NNW,342,0.0,4.0,92,0.00,,SKC,0.03,0.00,VWS V14.01,2013-02-07 04:30:00,
2013-02-06 21:36:00,32.8,30.7,29.99,NNW,342,0.0,5.0,92,0.00,,SKC,0.03,0.00,VWS V14.01,2013-02-07 04:36:00,
2013-02-06 21:42:00,32.8,30.7,29.99,NNW,341,0.0,5.0,92,0.00,,SKC,0.03,0.00,VWS V14.01,2013-02-07 04:42:00,
2013-02-06 21:45:00,32.7,30.6,29.99,NNW,342,0.0,5.0,92,0.00,,SKC,0.03,0.00,VWS V14.01,2013-02-07 04:45:00,
2013-02-06 21:48:00,32.7,30.6,29.98,NNW,342,0.0,0.0,92,0.00,,SKC,0.03,0.00,VWS V14.01,2013-02-07 04:48:00,
2013-02-06 21:54:00,32.7,30.6,29.99,NNW,342,0.0,0.0,92,0.00,,SKC,0.03,0.00,VWS V14.01,2013-02-07 04:54:00,
2013-02-06 22:00:00,32.6,30.5,29.99,NNW,342,0.0,0.0,92,0.00,,SKC,0.03,0.00,VWS V14.01,2013-02-07 05:00:00,
2013-02-06 22:04:00,32.6,30.5,29.96,NNW,342,0.0,0.0,92,0.00,,SKC,0.03,0.00,VWS V14.01,2013-02-07 05:04:00,
2013-02-06 22:06:00,32.6,30.5,29.96,NNW,342,0.0,0.0,92,0.00,,SKC,0.03,0.00,VWS V14.01,2013-02-07 05:06:00,
2013-02-06 22:12:00,32.5,30.4,29.96,NNW,342,0.0,0.0,92,0.00,,SKC,0.03,0.00,VWS V14.01,2013-02-07 05:12:00,
2013-02-06 22:15:00,32.4,30.3,29.96,NNW,342,0.0,0.0,92,0.00,,SKC,0.03,0.00,VWS V14.01,2013-02-07 05:15:00,
2013-02-06 22:18:00,32.4,30.3,29.96,NNW,342,0.0,0.0,92,0.00,,SKC,0.03,0.00,VWS V14.01,2013-02-07 05:18:00,
2013-02-06 22:24:00,32.3,30.2,29.96,NNW,342,0.0,0.0,92,0.00,,SKC,0.03,0.00,VWS V14.01,2013-02-07 05:24:00,
2013-02-06 22:30:00,32.1,30.0,29.96,NNW,342,0.0,0.0,92,0.00,,SKC,0.03,0.00,VWS V14.01,2013-02-07 05:30:00,
2013-02-06 22:36:00,31.9,29.8,29.97,NNW,342,0.0,0.0,92,0.00,,SKC,0.03,0.00,VWS V14.01,2013-02-07 05:36:00,
2013-02-06 22:42:00,31.8,29.8,29.97,NNW,342,0.0,0.0,92,0.00,,SKC,0.03,0.00,VWS V14.01,2013-02-07 05:42:00,
2013-02-06 22:45:00,31.7,29.6,29.97,NNW,342,0.0,0.0,92,0.00,,SKC,0.03,0.00,VWS V14.01,2013-02-07 05:45:00,
2013-02-06 22:48:00,31.7,29.6,29.97,NNW,342,0.0,0.0,92,0.00,,SKC,0.03,0.00,VWS V14.01,2013-02-07 05:48:00,
2013-02-06 22:54:00,31.6,29.5,29.97,NNW,342,0.0,0.0,92,0.00,,SKC,0.03,0.00,VWS V14.01,2013-02-07 05:54:00,
2013-02-06 23:00:00,31.5,29.5,29.97,NNW,342,0.0,0.0,92,0.00,,SKC,0.03,0.00,VWS V14.01,2013-02-07 06:00:00,
2013-02-06 23:06:00,31.5,29.5,29.94,NNW,342,0.0,0.0,92,0.00,,SKC,0.03,0.00,VWS V14.01,2013-02-07 06:06:00,
2013-02-06 23:12:00,31.4,29.4,29.94,NNW,342,0.0,0.0,92,0.00,,SKC,0.03,0.00,VWS V14.01,2013-02-07 06:12:00,
2013-02-06 23:15:00,31.3,29.2,29.94,NNW,342,0.0,0.0,92,0.00,,SKC,0.03,0.00,VWS V14.01,2013-02-07 06:15:00,
2013-02-06 23:18:00,31.2,29.1,29.94,NNW,342,0.0,0.0,92,0.00,,SKC,0.03,0.00,VWS V14.01,2013-02-07 06:18:00,
2013-02-06 23:24:00,30.9,28.6,29.94,NNW,342,0.0,0.0,91,0.00,,SKC,0.03,0.00,VWS V14.01,2013-02-07 06:24:00,
2013-02-06 23:30:00,30.5,28.2,29.95,NNW,342,0.0,0.0,91,0.00,,SKC,0.03,0.00,VWS V14.01,2013-02-07 06:30:00,
2013-02-06 23:31:00,30.5,28.2,29.95,NNW,342,0.0,0.0,91,0.00,,SKC,0.03,0.00,VWS V14.01,2013-02-07 06:31:00,
2013-02-06 23:37:00,30.2,27.9,29.97,NNW,342,0.0,0.0,91,0.00,,SKC,0.03,0.00,VWS V14.01,2013-02-07 06:37:00,
2013-02-06 23:43:00,30.0,27.7,29.97,NNW,342,0.0,0.0,91,0.00,,SKC,0.03,0.00,VWS V14.01,2013-02-07 06:43:00,
2013-02-06 23:45:00,29.9,27.6,29.97,NNW,341,0.0,0.0,91,0.00,,SKC,0.03,0.00,VWS V14.01,2013-02-07 06:45:00,
2013-02-06 23:49:00,29.8,27.5,29.98,NNW,342,0.0,0.0,91,0.00,,SKC,0.03,0.00,VWS V14.01,2013-02-07 06:49:00,
2013-02-06 23:55:00,29.7,27.4,29.98,NNW,342,0.0,0.0,91,0.00,,SKC,0.03,0.00,VWS V14.01,2013-02-07 06:55:00,